sensor_id;sensor_type;location;lat;lon;timestamp;pressure;altitude;pressure_sealevel;temperature;humidity
59190;BME280;50749;51.636;4.948;2022-07-30T00:02:23;101912.59;;;22.98;48.24
59190;BME280;50749;51.636;4.948;2022-07-30T00:04:48;101914.59;;;22.97;48.37
59190;BME280;50749;51.636;4.948;2022-07-30T00:07:14;101911.00;;;22.97;48.56
59190;BME280;50749;51.636;4.948;2022-07-30T00:09:40;101905.44;;;22.97;48.40
59190;BME280;50749;51.636;4.948;2022-07-30T00:12:06;101899.41;;;22.95;48.30
59190;BME280;50749;51.636;4.948;2022-07-30T00:14:33;101905.78;;;22.95;48.25
59190;BME280;50749;51.636;4.948;2022-07-30T00:17:00;101901.38;;;22.94;48.40
59190;BME280;50749;51.636;4.948;2022-07-30T00:19:26;101899.78;;;22.93;48.77
59190;BME280;50749;51.636;4.948;2022-07-30T00:21:53;101902.22;;;22.95;48.23
59190;BME280;50749;51.636;4.948;2022-07-30T00:24:22;101900.59;;;22.94;48.60
59190;BME280;50749;51.636;4.948;2022-07-30T00:26:48;101895.00;;;22.94;48.15
59190;BME280;50749;51.636;4.948;2022-07-30T00:29:14;101901.75;;;22.93;48.17
59190;BME280;50749;51.636;4.948;2022-07-30T00:31:39;101893.38;;;22.93;48.30
59190;BME280;50749;51.636;4.948;2022-07-30T00:34:05;101885.38;;;22.91;48.66
59190;BME280;50749;51.636;4.948;2022-07-30T00:36:31;101889.00;;;22.92;48.65
59190;BME280;50749;51.636;4.948;2022-07-30T00:38:57;101892.59;;;22.92;48.67
59190;BME280;50749;51.636;4.948;2022-07-30T00:41:23;101887.81;;;22.93;48.49
59190;BME280;50749;51.636;4.948;2022-07-30T00:43:49;101890.97;;;22.91;48.35
59190;BME280;50749;51.636;4.948;2022-07-30T00:46:15;101890.97;;;22.91;48.65
59190;BME280;50749;51.636;4.948;2022-07-30T00:48:41;101885.38;;;22.91;48.39
59190;BME280;50749;51.636;4.948;2022-07-30T00:51:08;101886.56;;;22.90;48.66
59190;BME280;50749;51.636;4.948;2022-07-30T00:53:33;101887.72;;;22.89;48.56
59190;BME280;50749;51.636;4.948;2022-07-30T00:55:59;101879.25;;;22.82;48.36
59190;BME280;50749;51.636;4.948;2022-07-30T00:58:26;101892.94;;;22.91;48.71
59190;BME280;50749;51.636;4.948;2022-07-30T01:00:52;101899.31;;;22.91;48.28
59190;BME280;50749;51.636;4.948;2022-07-30T01:03:17;101896.09;;;22.89;48.38
59190;BME280;50749;51.636;4.948;2022-07-30T01:05:43;101892.88;;;22.87;48.60
59190;BME280;50749;51.636;4.948;2022-07-30T01:08:09;101890.88;;;22.88;48.49
59190;BME280;50749;51.636;4.948;2022-07-30T01:10:35;101884.50;;;22.87;48.41
59190;BME280;50749;51.636;4.948;2022-07-30T01:13:02;101878.13;;;22.87;48.72
59190;BME280;50749;51.636;4.948;2022-07-30T01:15:28;101884.50;;;22.87;48.08
59190;BME280;50749;51.636;4.948;2022-07-30T01:17:56;101883.72;;;22.87;48.53
59190;BME280;50749;51.636;4.948;2022-07-30T01:20:27;101887.31;;;22.87;48.10
59190;BME280;50749;51.636;4.948;2022-07-30T01:23:12;101881.72;;;22.87;48.35
59190;BME280;50749;51.636;4.948;2022-07-30T01:25:55;101889.28;;;22.87;48.53
59190;BME280;50749;51.636;4.948;2022-07-30T01:28:27;101875.72;;;22.85;48.51
59190;BME280;50749;51.636;4.948;2022-07-30T01:30:55;101881.28;;;22.85;48.17
59190;BME280;50749;51.636;4.948;2022-07-30T01:33:23;101886.88;;;22.85;48.35
59190;BME280;50749;51.636;4.948;2022-07-30T01:35:50;101874.53;;;22.86;48.71
59190;BME280;50749;51.636;4.948;2022-07-30T01:38:19;101881.22;;;22.81;48.77
59190;BME280;50749;51.636;4.948;2022-07-30T01:40:49;101879.66;;;22.84;48.48
59190;BME280;50749;51.636;4.948;2022-07-30T01:43:18;101879.66;;;22.84;48.29
59190;BME280;50749;51.636;4.948;2022-07-30T01:45:46;101878.88;;;22.84;48.52
59190;BME280;50749;51.636;4.948;2022-07-30T01:48:13;101879.66;;;22.84;48.12
59190;BME280;50749;51.636;4.948;2022-07-30T01:50:47;101883.66;;;22.83;48.38
59190;BME280;50749;51.636;4.948;2022-07-30T01:53:16;101875.66;;;22.81;48.59
59190;BME280;50749;51.636;4.948;2022-07-30T01:55:43;101879.25;;;22.82;48.71
59190;BME280;50749;51.636;4.948;2022-07-30T01:58:11;101882.03;;;22.82;48.70
59190;BME280;50749;51.636;4.948;2022-07-30T02:00:39;101878.81;;;22.80;48.74
59190;BME280;50749;51.636;4.948;2022-07-30T02:03:09;101879.59;;;22.80;48.62
59190;BME280;50749;51.636;4.948;2022-07-30T02:05:36;101880.41;;;22.81;48.43
59190;BME280;50749;51.636;4.948;2022-07-30T02:08:11;101888.75;;;22.81;48.43
59190;BME280;50749;51.636;4.948;2022-07-30T02:10:48;101884.38;;;22.80;48.67
59190;BME280;50749;51.636;4.948;2022-07-30T02:13:26;101880.75;;;22.79;48.52
59190;BME280;50749;51.636;4.948;2022-07-30T02:16:10;101888.31;;;22.79;48.52
59190;BME280;50749;51.636;4.948;2022-07-30T02:21:24;101882.75;;;22.79;48.54
59190;BME280;50749;51.636;4.948;2022-07-30T02:23:54;101882.75;;;22.79;48.33
59190;BME280;50749;51.636;4.948;2022-07-30T02:26:22;101885.09;;;22.77;48.22
59190;BME280;50749;51.636;4.948;2022-07-30T02:28:52;101892.31;;;22.78;48.28
59190;BME280;50749;51.636;4.948;2022-07-30T02:31:22;101883.94;;;22.78;48.41
59190;BME280;50749;51.636;4.948;2022-07-30T02:33:53;101879.53;;;22.77;48.23
59190;BME280;50749;51.636;4.948;2022-07-30T02:36:20;101886.72;;;22.78;48.63
59190;BME280;50749;51.636;4.948;2022-07-30T02:38:48;101880.69;;;22.76;48.38
59190;BME280;50749;51.636;4.948;2022-07-30T02:41:16;101881.88;;;22.75;48.22
59190;BME280;50749;51.636;4.948;2022-07-30T02:43:44;101885.91;;;22.77;48.76
59190;BME280;50749;51.636;4.948;2022-07-30T02:46:11;101886.28;;;22.76;48.51
59190;BME280;50749;51.636;4.948;2022-07-30T02:48:39;101889.88;;;22.76;48.21
59190;BME280;50749;51.636;4.948;2022-07-30T02:51:07;101888.25;;;22.75;48.15
59190;BME280;50749;51.636;4.948;2022-07-30T02:53:36;101883.34;;;22.69;48.19
59190;BME280;50749;51.636;4.948;2022-07-30T02:56:04;101880.25;;;22.74;48.46
59190;BME280;50749;51.636;4.948;2022-07-30T02:58:31;101884.66;;;22.75;48.67
59190;BME280;50749;51.636;4.948;2022-07-30T03:01:01;101883.84;;;22.74;48.43
59190;BME280;50749;51.636;4.948;2022-07-30T03:03:27;101885.03;;;22.73;48.62
59190;BME280;50749;51.636;4.948;2022-07-30T03:05:54;101884.22;;;22.73;48.17
59190;BME280;50749;51.636;4.948;2022-07-30T03:08:20;101887.47;;;22.75;48.18
59190;BME280;50749;51.636;4.948;2022-07-30T03:10:47;101889.78;;;22.73;48.48
59190;BME280;50749;51.636;4.948;2022-07-30T03:13:15;101888.97;;;22.72;48.30
59190;BME280;50749;51.636;4.948;2022-07-30T03:15:45;101895.34;;;22.73;48.45
59190;BME280;50749;51.636;4.948;2022-07-30T03:18:15;101896.97;;;22.74;48.22
59190;BME280;50749;51.636;4.948;2022-07-30T03:20:45;101895.75;;;22.71;48.10
59190;BME280;50749;51.636;4.948;2022-07-30T03:23:12;101893.75;;;22.72;48.23
59190;BME280;50749;51.636;4.948;2022-07-30T03:25:41;101893.75;;;22.72;48.52
59190;BME280;50749;51.636;4.948;2022-07-30T03:28:10;101890.19;;;22.71;48.22
59190;BME280;50749;51.636;4.948;2022-07-30T03:30:37;101898.53;;;22.71;48.25
59190;BME280;50749;51.636;4.948;2022-07-30T03:33:04;101898.53;;;22.71;48.38
59190;BME280;50749;51.636;4.948;2022-07-30T03:35:31;101897.72;;;22.71;48.48
59190;BME280;50749;51.636;4.948;2022-07-30T03:37:57;101894.94;;;22.71;48.45
59190;BME280;50749;51.636;4.948;2022-07-30T03:40:24;101894.50;;;22.69;48.19
59190;BME280;50749;51.636;4.948;2022-07-30T03:42:51;101896.41;;;22.65;48.44
59190;BME280;50749;51.636;4.948;2022-07-30T03:45:17;101907.25;;;22.70;48.32
59190;BME280;50749;51.636;4.948;2022-07-30T03:47:45;101907.25;;;22.70;48.64
59190;BME280;50749;51.636;4.948;2022-07-30T03:50:12;101902.84;;;22.69;48.55
59190;BME280;50749;51.636;4.948;2022-07-30T03:52:40;101903.22;;;22.67;48.12
59190;BME280;50749;51.636;4.948;2022-07-30T03:55:07;101912.38;;;22.68;48.17
59190;BME280;50749;51.636;4.948;2022-07-30T03:57:34;101911.94;;;22.66;48.60
59190;BME280;50749;51.636;4.948;2022-07-30T04:00:00;101911.94;;;22.66;48.48
59190;BME280;50749;51.636;4.948;2022-07-30T04:02:25;101916.72;;;22.65;48.55
59190;BME280;50749;51.636;4.948;2022-07-30T04:04:51;101913.94;;;22.65;48.19
59190;BME280;50749;51.636;4.948;2022-07-30T04:07:17;101915.91;;;22.65;48.48
59190;BME280;50749;51.636;4.948;2022-07-30T04:09:42;101922.66;;;22.63;48.68
59190;BME280;50749;51.636;4.948;2022-07-30T04:12:08;101915.44;;;22.62;48.45
59190;BME280;50749;51.636;4.948;2022-07-30T04:14:44;101911.88;;;22.62;48.74
59190;BME280;50749;51.636;4.948;2022-07-30T04:17:43;101917.88;;;22.64;48.69
59190;BME280;50749;51.636;4.948;2022-07-30T04:20:20;101916.28;;;22.63;48.36
59190;BME280;50749;51.636;4.948;2022-07-30T04:22:47;101927.06;;;22.65;48.29
59190;BME280;50749;51.636;4.948;2022-07-30T04:25:13;101924.63;;;22.63;48.83
59190;BME280;50749;51.636;4.948;2022-07-30T04:27:40;101930.22;;;22.63;48.61
59190;BME280;50749;51.636;4.948;2022-07-30T04:30:07;101936.16;;;22.61;48.32
59190;BME280;50749;51.636;4.948;2022-07-30T04:32:34;101933.78;;;22.63;48.54
59190;BME280;50749;51.636;4.948;2022-07-30T04:34:59;101932.16;;;22.62;48.38
59190;BME280;50749;51.636;4.948;2022-07-30T04:37:27;101934.16;;;22.62;48.30
59190;BME280;50749;51.636;4.948;2022-07-30T04:39:53;101926.59;;;22.62;48.65
59190;BME280;50749;51.636;4.948;2022-07-30T04:42:19;101938.22;;;22.65;48.21
59190;BME280;50749;51.636;4.948;2022-07-30T04:44:46;101935.78;;;22.63;48.39
59190;BME280;50749;51.636;4.948;2022-07-30T04:47:12;101932.63;;;22.65;48.42
59190;BME280;50749;51.636;4.948;2022-07-30T04:49:39;101938.22;;;22.65;48.72
59190;BME280;50749;51.636;4.948;2022-07-30T04:52:07;101948.53;;;22.64;48.20
59190;BME280;50749;51.636;4.948;2022-07-30T04:54:50;101939.81;;;22.66;48.62
59190;BME280;50749;51.636;4.948;2022-07-30T04:57:18;101946.66;;;22.68;48.49
59190;BME280;50749;51.636;4.948;2022-07-30T04:59:44;101938.72;;;22.70;48.55
59190;BME280;50749;51.636;4.948;2022-07-30T05:02:10;101949.50;;;22.72;48.66
59190;BME280;50749;51.636;4.948;2022-07-30T05:04:39;101943.94;;;22.72;48.40
59190;BME280;50749;51.636;4.948;2022-07-30T05:07:06;101962.34;;;22.76;48.56
59190;BME280;50749;51.636;4.948;2022-07-30T05:09:32;101949.66;;;22.79;48.14
59190;BME280;50749;51.636;4.948;2022-07-30T05:11:59;101953.41;;;22.87;48.31
59190;BME280;50749;51.636;4.948;2022-07-30T05:14:26;101950.69;;;22.90;48.49
59190;BME280;50749;51.636;4.948;2022-07-30T05:16:52;101955.63;;;22.97;48.34
59190;BME280;50749;51.636;4.948;2022-07-30T05:19:20;101955.31;;;23.02;48.92
59190;BME280;50749;51.636;4.948;2022-07-30T05:21:46;101953.50;;;23.10;48.70
59190;BME280;50749;51.636;4.948;2022-07-30T05:24:11;101955.19;;;23.14;48.99
59190;BME280;50749;51.636;4.948;2022-07-30T05:26:38;101960.03;;;23.17;48.45
59190;BME280;50749;51.636;4.948;2022-07-30T05:29:04;101959.38;;;23.24;48.90
59190;BME280;50749;51.636;4.948;2022-07-30T05:31:29;101958.72;;;23.31;48.74
59190;BME280;50749;51.636;4.948;2022-07-30T05:33:55;101961.56;;;23.34;48.46
59190;BME280;50749;51.636;4.948;2022-07-30T05:36:21;101961.69;;;23.42;48.19
59190;BME280;50749;51.636;4.948;2022-07-30T05:38:48;101964.66;;;23.49;48.52
59190;BME280;50749;51.636;4.948;2022-07-30T05:41:14;101971.03;;;23.49;48.45
59190;BME280;50749;51.636;4.948;2022-07-30T05:43:40;101961.13;;;23.52;48.27
59190;BME280;50749;51.636;4.948;2022-07-30T05:46:06;101965.94;;;23.55;48.09
59190;BME280;50749;51.636;4.948;2022-07-30T05:48:32;101969.63;;;23.59;48.24
59190;BME280;50749;51.636;4.948;2022-07-30T05:51:00;101966.47;;;23.61;48.44
59190;BME280;50749;51.636;4.948;2022-07-30T05:53:26;101969.25;;;23.61;48.18
59190;BME280;50749;51.636;4.948;2022-07-30T05:55:52;101978.44;;;23.61;48.44
59190;BME280;50749;51.636;4.948;2022-07-30T05:58:18;101975.22;;;23.59;48.40
59190;BME280;50749;51.636;4.948;2022-07-30T06:00:44;101981.59;;;23.60;48.21
59190;BME280;50749;51.636;4.948;2022-07-30T06:03:10;101978.44;;;23.61;48.62
59190;BME280;50749;51.636;4.948;2022-07-30T06:05:36;101979.22;;;23.62;48.42
59190;BME280;50749;51.636;4.948;2022-07-30T06:08:02;101981.28;;;23.65;48.30
59190;BME280;50749;51.636;4.948;2022-07-30T06:10:28;101981.34;;;23.68;48.72
59190;BME280;50749;51.636;4.948;2022-07-30T06:12:53;101980.97;;;23.70;48.45
59190;BME280;50749;51.636;4.948;2022-07-30T06:15:19;101979.44;;;23.72;48.54
59190;BME280;50749;51.636;4.948;2022-07-30T06:17:46;101980.25;;;23.73;48.51
59190;BME280;50749;51.636;4.948;2022-07-30T06:20:15;101981.91;;;23.78;48.56
59190;BME280;50749;51.636;4.948;2022-07-30T06:22:41;101986.31;;;23.79;48.65
59190;BME280;50749;51.636;4.948;2022-07-30T06:25:08;101988.03;;;23.83;48.31
59190;BME280;50749;51.636;4.948;2022-07-30T06:27:34;101983.50;;;23.79;49.25
59190;BME280;50749;51.636;4.948;2022-07-30T06:30:02;101985.16;;;23.80;48.60
59190;BME280;50749;51.636;4.948;2022-07-30T06:32:29;101983.50;;;23.79;48.59
59190;BME280;50749;51.636;4.948;2022-07-30T06:34:55;101990.72;;;23.80;48.50
59190;BME280;50749;51.636;4.948;2022-07-30T06:37:20;101984.78;;;23.81;48.54
59190;BME280;50749;51.636;4.948;2022-07-30T06:39:46;101990.81;;;23.83;48.48
59190;BME280;50749;51.636;4.948;2022-07-30T06:42:12;101989.56;;;23.81;48.63
59190;BME280;50749;51.636;4.948;2022-07-30T06:44:38;101990.03;;;23.83;48.24
59190;BME280;50749;51.636;4.948;2022-07-30T06:47:04;101991.19;;;23.82;48.72
59190;BME280;50749;51.636;4.948;2022-07-30T06:49:32;101997.19;;;23.84;48.69
59190;BME280;50749;51.636;4.948;2022-07-30T06:51:57;101983.97;;;23.81;48.34
59190;BME280;50749;51.636;4.948;2022-07-30T06:54:24;101988.41;;;23.82;48.51
59190;BME280;50749;51.636;4.948;2022-07-30T06:56:49;101991.53;;;23.80;48.59
59190;BME280;50749;51.636;4.948;2022-07-30T06:59:15;101994.69;;;23.79;48.55
59190;BME280;50749;51.636;4.948;2022-07-30T07:01:41;101992.28;;;23.77;48.73
59190;BME280;50749;51.636;4.948;2022-07-30T07:04:07;101997.88;;;23.77;48.46
59190;BME280;50749;51.636;4.948;2022-07-30T07:06:32;101989.09;;;23.79;48.26
59190;BME280;50749;51.636;4.948;2022-07-30T07:08:59;101992.00;;;23.82;48.48
59190;BME280;50749;51.636;4.948;2022-07-30T07:11:24;101999.63;;;23.85;48.28
59190;BME280;50749;51.636;4.948;2022-07-30T07:13:50;101993.25;;;23.85;48.33
59190;BME280;50749;51.636;4.948;2022-07-30T07:16:16;102003.66;;;23.88;48.56
59190;BME280;50749;51.636;4.948;2022-07-30T07:18:46;102008.53;;;23.91;47.99
59190;BME280;50749;51.636;4.948;2022-07-30T07:21:14;102000.13;;;23.91;48.06
59190;BME280;50749;51.636;4.948;2022-07-30T07:23:40;101992.56;;;23.91;47.97
59190;BME280;50749;51.636;4.948;2022-07-30T07:26:05;101997.78;;;23.93;48.52
59190;BME280;50749;51.636;4.948;2022-07-30T07:28:31;102004.53;;;23.92;47.89
59190;BME280;50749;51.636;4.948;2022-07-30T07:30:58;101997.19;;;23.84;48.22
59190;BME280;50749;51.636;4.948;2022-07-30T07:33:23;102003.47;;;23.77;47.80
59190;BME280;50749;51.636;4.948;2022-07-30T07:35:49;102003.97;;;23.63;48.08
59190;BME280;50749;51.636;4.948;2022-07-30T07:38:18;102009.13;;;23.61;47.70
59190;BME280;50749;51.636;4.948;2022-07-30T07:40:44;102006.50;;;23.49;47.65
59190;BME280;50749;51.636;4.948;2022-07-30T07:43:10;102007.19;;;23.42;47.55
59190;BME280;50749;51.636;4.948;2022-07-30T07:45:35;102004.22;;;23.35;48.23
59190;BME280;50749;51.636;4.948;2022-07-30T07:48:01;102003.41;;;23.34;47.72
59190;BME280;50749;51.636;4.948;2022-07-30T07:50:27;102007.41;;;23.33;47.40
59190;BME280;50749;51.636;4.948;2022-07-30T07:52:53;102003.41;;;23.34;47.70
59190;BME280;50749;51.636;4.948;2022-07-30T07:55:18;102011.66;;;23.27;48.06
59190;BME280;50749;51.636;4.948;2022-07-30T07:57:44;102009.88;;;23.19;48.43
59190;BME280;50749;51.636;4.948;2022-07-30T08:00:12;102012.53;;;23.31;48.53
59190;BME280;50749;51.636;4.948;2022-07-30T08:02:42;102005.47;;;23.37;49.30
59190;BME280;50749;51.636;4.948;2022-07-30T08:05:08;102013.91;;;23.41;49.30
59190;BME280;50749;51.636;4.948;2022-07-30T08:07:38;102007.25;;;23.46;49.49
59190;BME280;50749;51.636;4.948;2022-07-30T08:10:04;102007.69;;;23.48;48.97
59190;BME280;50749;51.636;4.948;2022-07-30T08:12:31;102006.56;;;23.52;49.35
59190;BME280;50749;51.636;4.948;2022-07-30T08:14:57;102007.88;;;23.59;49.20
59190;BME280;50749;51.636;4.948;2022-07-30T08:17:23;102003.13;;;23.59;49.07
59190;BME280;50749;51.636;4.948;2022-07-30T08:19:48;102009.63;;;23.67;49.67
59190;BME280;50749;51.636;4.948;2022-07-30T08:22:15;102010.88;;;23.69;48.97
59190;BME280;50749;51.636;4.948;2022-07-30T08:24:40;102003.81;;;23.76;49.21
59190;BME280;50749;51.636;4.948;2022-07-30T08:27:06;102000.72;;;23.81;49.51
59190;BME280;50749;51.636;4.948;2022-07-30T08:29:32;101993.88;;;23.78;49.74
59190;BME280;50749;51.636;4.948;2022-07-30T08:31:58;101990.72;;;23.80;49.27
59190;BME280;50749;51.636;4.948;2022-07-30T08:34:24;101991.53;;;23.80;49.27
59190;BME280;50749;51.636;4.948;2022-07-30T08:36:50;101982.88;;;23.85;49.69
59190;BME280;50749;51.636;4.948;2022-07-30T08:39:15;101982.06;;;23.85;49.44
59190;BME280;50749;51.636;4.948;2022-07-30T08:41:41;101992.06;;;23.86;49.49
59190;BME280;50749;51.636;4.948;2022-07-30T08:44:09;101990.88;;;23.87;49.87
59190;BME280;50749;51.636;4.948;2022-07-30T08:46:35;101988.53;;;23.89;49.81
59190;BME280;50749;51.636;4.948;2022-07-30T08:49:05;102000.13;;;23.91;49.77
59190;BME280;50749;51.636;4.948;2022-07-30T08:51:31;101996.59;;;23.94;49.52
59190;BME280;50749;51.636;4.948;2022-07-30T08:53:58;101997.84;;;23.97;49.78
59190;BME280;50749;51.636;4.948;2022-07-30T08:56:26;101997.03;;;23.96;50.07
59190;BME280;50749;51.636;4.948;2022-07-30T08:58:53;102005.09;;;24.01;49.41
59190;BME280;50749;51.636;4.948;2022-07-30T09:01:21;102007.91;;;24.01;49.74
59190;BME280;50749;51.636;4.948;2022-07-30T09:03:46;102003.53;;;24.04;49.88
59190;BME280;50749;51.636;4.948;2022-07-30T09:06:14;102012.38;;;24.06;49.68
59190;BME280;50749;51.636;4.948;2022-07-30T09:08:39;102013.97;;;24.07;49.43
59190;BME280;50749;51.636;4.948;2022-07-30T09:11:05;102008.75;;;24.05;49.95
59190;BME280;50749;51.636;4.948;2022-07-30T09:13:33;102013.66;;;24.12;50.06
59190;BME280;50749;51.636;4.948;2022-07-30T09:16:00;102010.88;;;24.12;49.64
59190;BME280;50749;51.636;4.948;2022-07-30T09:21:13;102013.72;;;24.16;49.79
59190;BME280;50749;51.636;4.948;2022-07-30T09:23:40;102005.78;;;24.18;49.93
59190;BME280;50749;51.636;4.948;2022-07-30T09:26:06;102012.97;;;24.19;49.74
59190;BME280;50749;51.636;4.948;2022-07-30T09:28:32;102014.59;;;24.20;50.21
59190;BME280;50749;51.636;4.948;2022-07-30T09:30:59;102011.06;;;24.23;49.74
59190;BME280;50749;51.636;4.948;2022-07-30T09:36:00;102009.13;;;24.27;50.08
59190;BME280;50749;51.636;4.948;2022-07-30T09:38:27;102008.38;;;24.30;49.90
59190;BME280;50749;51.636;4.948;2022-07-30T09:40:54;102003.53;;;24.27;50.10
59190;BME280;50749;51.636;4.948;2022-07-30T09:43:20;102005.56;;;24.30;50.17
59190;BME280;50749;51.636;4.948;2022-07-30T09:45:54;102008.06;;;24.35;49.80
59190;BME280;50749;51.636;4.948;2022-07-30T09:48:24;102006.88;;;24.36;49.83
59190;BME280;50749;51.636;4.948;2022-07-30T09:50:51;102006.09;;;24.39;50.17
59190;BME280;50749;51.636;4.948;2022-07-30T09:53:18;102004.19;;;24.43;50.79
59190;BME280;50749;51.636;4.948;2022-07-30T09:55:44;102008.28;;;24.50;50.48
59190;BME280;50749;51.636;4.948;2022-07-30T09:58:11;102007.09;;;24.51;50.42
59190;BME280;50749;51.636;4.948;2022-07-30T10:00:37;102008.63;;;24.44;47.94
59190;BME280;50749;51.636;4.948;2022-07-30T10:03:20;102000.53;;;24.39;47.24
59190;BME280;50749;51.636;4.948;2022-07-30T10:05:51;102006.00;;;24.32;47.69
59190;BME280;50749;51.636;4.948;2022-07-30T10:08:16;102000.72;;;24.27;47.65
59190;BME280;50749;51.636;4.948;2022-07-30T10:10:43;102003.84;;;24.22;47.34
59190;BME280;50749;51.636;4.948;2022-07-30T10:13:11;101997.03;;;24.19;47.06
59190;BME280;50749;51.636;4.948;2022-07-30T10:15:38;101995.41;;;24.18;47.53
59190;BME280;50749;51.636;4.948;2022-07-30T10:18:04;101992.97;;;24.17;47.35
59190;BME280;50749;51.636;4.948;2022-07-30T10:20:30;102002.53;;;24.16;47.55
59190;BME280;50749;51.636;4.948;2022-07-30T10:22:57;102002.94;;;24.14;47.79
59190;BME280;50749;51.636;4.948;2022-07-30T10:25:24;101993.41;;;24.19;47.92
59190;BME280;50749;51.636;4.948;2022-07-30T10:27:51;101994.59;;;24.18;47.47
59190;BME280;50749;51.636;4.948;2022-07-30T10:30:17;101992.63;;;24.18;47.82
59190;BME280;50749;51.636;4.948;2022-07-30T10:32:44;101995.41;;;24.18;48.03
59190;BME280;50749;51.636;4.948;2022-07-30T10:35:11;101996.22;;;24.19;47.55
59190;BME280;50749;51.636;4.948;2022-07-30T10:37:40;101999.44;;;24.21;47.89
59190;BME280;50749;51.636;4.948;2022-07-30T10:47:53;101999.31;;;24.14;46.43
59190;BME280;50749;51.636;4.948;2022-07-30T10:50:22;101998.88;;;24.11;46.41
59190;BME280;50749;51.636;4.948;2022-07-30T10:55:25;102002.75;;;24.03;46.36
59190;BME280;50749;51.636;4.948;2022-07-30T10:58:06;102001.88;;;23.99;46.16
59190;BME280;50749;51.636;4.948;2022-07-30T11:00:34;101997.47;;;23.98;46.09
59190;BME280;50749;51.636;4.948;2022-07-30T11:03:25;101999.03;;;23.96;46.35
59190;BME280;50749;51.636;4.948;2022-07-30T11:08:41;101991.03;;;23.94;46.41
59190;BME280;50749;51.636;4.948;2022-07-30T11:16:18;101983.81;;;23.93;46.75
59190;BME280;50749;51.636;4.948;2022-07-30T11:19:07;101980.28;;;23.96;46.99
59190;BME280;50749;51.636;4.948;2022-07-30T11:21:35;101987.03;;;23.95;46.78
59190;BME280;50749;51.636;4.948;2022-07-30T11:24:01;101978.66;;;23.95;46.90
59190;BME280;50749;51.636;4.948;2022-07-30T11:29:33;101987.47;;;23.97;46.48
59190;BME280;50749;51.636;4.948;2022-07-30T11:32:24;101985.44;;;23.94;46.51
59190;BME280;50749;51.636;4.948;2022-07-30T11:34:53;101980.59;;;23.91;46.51
59190;BME280;50749;51.636;4.948;2022-07-30T11:37:57;101979.34;;;23.88;47.11
59190;BME280;50749;51.636;4.948;2022-07-30T11:40:25;101983.81;;;23.93;47.05
59190;BME280;50749;51.636;4.948;2022-07-30T11:46:29;101990.25;;;23.97;46.83
59190;BME280;50749;51.636;4.948;2022-07-30T11:48:56;101981.81;;;23.93;46.35
59190;BME280;50749;51.636;4.948;2022-07-30T11:51:23;101984.19;;;23.91;46.69
59190;BME280;50749;51.636;4.948;2022-07-30T11:54:05;101989.41;;;23.93;46.58
59190;BME280;50749;51.636;4.948;2022-07-30T11:56:32;101983.81;;;23.93;46.95
59190;BME280;50749;51.636;4.948;2022-07-30T11:59:06;101986.97;;;23.91;47.09
59190;BME280;50749;51.636;4.948;2022-07-30T12:01:33;101985.28;;;23.87;47.02
59190;BME280;50749;51.636;4.948;2022-07-30T12:04:04;101982.13;;;23.88;46.86
59190;BME280;50749;51.636;4.948;2022-07-30T12:06:30;101988.44;;;23.85;46.75
59190;BME280;50749;51.636;4.948;2022-07-30T12:08:57;101982.06;;;23.85;47.09
59190;BME280;50749;51.636;4.948;2022-07-30T12:11:24;101990.81;;;23.83;46.64
59190;BME280;50749;51.636;4.948;2022-07-30T12:13:57;101984.88;;;23.85;46.84
59190;BME280;50749;51.636;4.948;2022-07-30T12:16:25;101983.69;;;23.86;46.50
59190;BME280;50749;51.636;4.948;2022-07-30T12:18:51;101988.81;;;23.84;46.21
59190;BME280;50749;51.636;4.948;2022-07-30T12:21:17;101985.28;;;23.87;46.65
59190;BME280;50749;51.636;4.948;2022-07-30T12:23:57;101983.69;;;23.86;46.24
59190;BME280;50749;51.636;4.948;2022-07-30T12:26:31;101986.91;;;23.88;46.14
59190;BME280;50749;51.636;4.948;2022-07-30T12:29:06;101982.88;;;23.85;46.13
59190;BME280;50749;51.636;4.948;2022-07-30T12:31:34;101985.66;;;23.85;46.04
59190;BME280;50749;51.636;4.948;2022-07-30T12:34:00;101978.97;;;23.90;45.97
59190;BME280;50749;51.636;4.948;2022-07-30T12:36:31;101983.81;;;23.93;45.84
59190;BME280;50749;51.636;4.948;2022-07-30T12:38:57;101988.66;;;23.96;46.24
59190;BME280;50749;51.636;4.948;2022-07-30T12:41:44;101979.84;;;23.94;46.30
59190;BME280;50749;51.636;4.948;2022-07-30T12:44:37;101987.47;;;23.97;46.27
59190;BME280;50749;51.636;4.948;2022-07-30T12:47:05;101989.81;;;23.95;45.75
59190;BME280;50749;51.636;4.948;2022-07-30T12:49:31;101975.88;;;23.95;46.27
59190;BME280;50749;51.636;4.948;2022-07-30T12:51:57;101970.66;;;23.93;46.08
59190;BME280;50749;51.636;4.948;2022-07-30T12:54:23;101973.06;;;23.95;45.92
59190;BME280;50749;51.636;4.948;2022-07-30T12:57:02;101971.91;;;23.96;46.37
59190;BME280;50749;51.636;4.948;2022-07-30T12:59:30;101975.50;;;23.97;46.03
59190;BME280;50749;51.636;4.948;2022-07-30T13:01:56;101974.69;;;23.96;46.13
59190;BME280;50749;51.636;4.948;2022-07-30T13:04:25;101964.69;;;23.95;45.62
59190;BME280;50749;51.636;4.948;2022-07-30T13:07:08;101961.47;;;23.93;45.70
59190;BME280;50749;51.636;4.948;2022-07-30T13:09:35;101969.13;;;23.96;45.70
59190;BME280;50749;51.636;4.948;2022-07-30T13:12:02;101965.06;;;23.93;45.77
59190;BME280;50749;51.636;4.948;2022-07-30T13:14:28;101969.41;;;23.91;45.91
59190;BME280;50749;51.636;4.948;2022-07-30T13:16:54;101966.75;;;23.98;45.50
59190;BME280;50749;51.636;4.948;2022-07-30T13:19:21;101961.53;;;23.97;45.61
59190;BME280;50749;51.636;4.948;2022-07-30T13:21:47;101961.91;;;23.95;45.61
59190;BME280;50749;51.636;4.948;2022-07-30T13:24:13;101961.97;;;23.99;45.73
59190;BME280;50749;51.636;4.948;2022-07-30T13:26:39;101946.41;;;23.98;45.81
59190;BME280;50749;51.636;4.948;2022-07-30T13:29:05;101948.38;;;23.97;45.57